Time;durP1;ratioP1;P1;durP2;ratioP2;P2;SDS_P1;SDS_P2;PMS_P1;PMS_P2;Temp;Humidity;BMP_temperature;BMP_pressure;BME280_temperature;BME280_humidity;BME280_pressure;Samples;Min_cycle;Max_cycle;Signal;HPM_P1;HPM_P2
2023/08/05 00:00:01;;;;;;;7.60;4.97;;;14.60;99.90;;;;;;4966560;28;20101;-86
2023/08/05 00:02:27;;;;;;;6.60;4.93;;;14.60;99.90;;;;;;4980960;28;20047;-88
2023/08/05 00:04:53;;;;;;;9.77;4.85;;;14.60;99.90;;;;;;4962031;28;20501;-84
2023/08/05 00:07:19;;;;;;;6.60;4.70;;;14.60;99.90;;;;;;4985500;28;20070;-84
2023/08/05 00:09:45;;;;;;;6.55;5.10;;;14.60;99.90;;;;;;4979056;28;20085;-84
2023/08/05 00:12:10;;;;;;;8.48;5.13;;;14.50;99.90;;;;;;4974847;28;20069;-84
2023/08/05 00:14:37;;;;;;;6.85;5.60;;;14.50;99.90;;;;;;4983034;28;20101;-85
2023/08/05 00:17:03;;;;;;;8.98;6.05;;;14.50;99.90;;;;;;4980298;28;20217;-84
2023/08/05 00:19:29;;;;;;;9.55;6.10;;;14.50;99.90;;;;;;4980950;28;20045;-84
2023/08/05 00:21:54;;;;;;;7.80;5.93;;;14.60;99.90;;;;;;4981430;28;20481;-86
2023/08/05 00:24:20;;;;;;;9.65;6.32;;;14.60;99.90;;;;;;4988269;28;20053;-85
2023/08/05 00:26:46;;;;;;;8.70;5.97;;;14.60;99.90;;;;;;4982722;28;20042;-87
2023/08/05 00:29:11;;;;;;;8.60;6.03;;;14.60;99.90;;;;;;4978830;28;20056;-87
2023/08/05 00:31:37;;;;;;;7.40;5.80;;;14.60;99.90;;;;;;4986870;28;20034;-86
2023/08/05 00:34:03;;;;;;;9.50;5.90;;;14.60;99.90;;;;;;4990020;28;20049;-86
2023/08/05 00:36:28;;;;;;;6.95;5.03;;;14.60;99.90;;;;;;4967829;28;20080;-86
2023/08/05 00:38:54;;;;;;;8.18;5.85;;;14.60;99.90;;;;;;4988364;28;20416;-86
2023/08/05 00:41:20;;;;;;;7.03;5.95;;;14.70;99.90;;;;;;4988672;28;20101;-86
2023/08/05 00:43:45;;;;;;;7.72;6.05;;;14.70;99.90;;;;;;4985760;28;20678;-86
2023/08/05 00:46:12;;;;;;;9.68;6.28;;;14.70;99.90;;;;;;4974594;28;20039;-86
2023/08/05 00:48:38;;;;;;;7.65;6.10;;;14.70;99.90;;;;;;4984883;28;20136;-86
2023/08/05 00:51:08;;;;;;;6.60;5.53;;;14.70;99.90;;;;;;4979510;28;20131;-86
2023/08/05 00:53:36;;;;;;;9.43;6.40;;;14.60;99.90;;;;;;4984059;28;20122;-86
2023/08/05 00:56:02;;;;;;;8.13;6.53;;;14.60;99.90;;;;;;4983036;28;20092;-86
2023/08/05 00:58:31;;;;;;;8.15;6.30;;;14.60;99.90;;;;;;4967057;28;20486;-86
2023/08/05 01:00:57;;;;;;;10.70;6.60;;;14.70;99.90;;;;;;4981221;28;20493;-86
2023/08/05 01:03:23;;;;;;;10.57;7.22;;;14.70;99.90;;;;;;4980207;28;20081;-86
2023/08/05 01:05:50;;;;;;;10.15;7.10;;;14.70;99.90;;;;;;4981768;28;20042;-86
2023/08/05 01:08:17;;;;;;;8.57;6.30;;;14.70;99.90;;;;;;4967906;28;20043;-86
2023/08/05 01:10:43;;;;;;;11.65;7.07;;;14.80;99.90;;;;;;4985212;28;20104;-86
2023/08/05 01:13:09;;;;;;;9.25;6.90;;;14.80;99.90;;;;;;4989782;28;20138;-86
2023/08/05 01:15:35;;;;;;;8.40;6.28;;;14.80;99.90;;;;;;4980919;28;20125;-86
2023/08/05 01:18:03;;;;;;;10.75;6.53;;;14.80;99.90;;;;;;4987689;28;20043;-87
2023/08/05 01:20:35;;;;;;;8.50;6.20;;;14.80;99.90;;;;;;4979064;28;20054;-86
2023/08/05 01:23:12;;;;;;;14.88;6.82;;;14.90;99.90;;;;;;4978897;28;20042;-86
2023/08/05 01:25:39;;;;;;;10.05;6.63;;;14.90;99.90;;;;;;4966776;28;20050;-86
2023/08/05 01:28:06;;;;;;;10.82;6.75;;;14.90;99.90;;;;;;4979081;28;20460;-86
2023/08/05 01:30:32;;;;;;;11.35;7.22;;;14.90;99.90;;;;;;4965144;28;20039;-86
2023/08/05 01:33:00;;;;;;;9.45;6.93;;;14.90;99.90;;;;;;4980303;28;20038;-87
2023/08/05 01:35:26;;;;;;;11.23;7.20;;;14.90;99.90;;;;;;4986511;28;20440;-86
2023/08/05 01:37:52;;;;;;;10.38;6.78;;;14.90;99.90;;;;;;4962227;28;20057;-86
2023/08/05 01:40:17;;;;;;;11.48;7.78;;;14.90;99.90;;;;;;4982378;28;20125;-86
2023/08/05 01:42:43;;;;;;;9.10;7.15;;;14.80;99.90;;;;;;4986608;28;20050;-86
2023/08/05 01:45:09;;;;;;;9.82;6.85;;;14.80;99.90;;;;;;4978951;28;20049;-86
2023/08/05 01:47:35;;;;;;;9.55;6.75;;;14.70;99.90;;;;;;4971061;28;20427;-86
2023/08/05 01:50:00;;;;;;;9.82;6.85;;;14.60;99.90;;;;;;4981414;28;20057;-86
2023/08/05 01:52:26;;;;;;;9.82;6.88;;;14.60;99.90;;;;;;4959921;28;20069;-87
2023/08/05 01:54:52;;;;;;;12.05;6.60;;;14.60;99.90;;;;;;4983108;28;20034;-86
2023/08/05 01:57:17;;;;;;;11.02;6.43;;;14.50;99.90;;;;;;4981692;28;20105;-86
2023/08/05 01:59:43;;;;;;;7.35;6.25;;;14.50;99.90;;;;;;4986565;28;20069;-86
2023/08/05 02:02:09;;;;;;;8.57;6.20;;;14.50;99.90;;;;;;4978954;28;20445;-86
2023/08/05 02:04:34;;;;;;;7.70;6.07;;;14.40;99.90;;;;;;4962169;28;20047;-86
2023/08/05 02:07:00;;;;;;;8.75;6.28;;;14.30;99.90;;;;;;4974529;28;20042;-86
2023/08/05 02:09:26;;;;;;;8.30;6.50;;;14.30;99.90;;;;;;4969548;28;20042;-86
2023/08/05 02:11:51;;;;;;;8.18;6.32;;;14.30;99.90;;;;;;4980364;28;20646;-86
2023/08/05 02:14:17;;;;;;;7.47;6.65;;;14.20;99.90;;;;;;4979303;28;20490;-87
2023/08/05 02:16:43;;;;;;;8.57;6.63;;;14.20;99.90;;;;;;4967345;28;20046;-86
2023/08/05 02:19:09;;;;;;;9.80;6.70;;;14.10;99.90;;;;;;4981796;28;20046;-86
2023/08/05 02:21:34;;;;;;;10.02;6.75;;;14.10;99.90;;;;;;4965121;28;20077;-87
2023/08/05 02:24:00;;;;;;;9.48;6.95;;;14.10;99.90;;;;;;4968620;28;20142;-86
2023/08/05 02:26:26;;;;;;;8.73;7.38;;;14.00;99.90;;;;;;4977812;28;20097;-86
2023/08/05 02:28:52;;;;;;;11.50;7.25;;;14.00;99.90;;;;;;4961590;28;20545;-86
2023/08/05 02:31:18;;;;;;;11.80;7.05;;;13.90;99.90;;;;;;4965503;28;20046;-86
2023/08/05 02:33:43;;;;;;;11.05;7.00;;;13.90;99.90;;;;;;4979840;28;20096;-87
2023/08/05 02:36:09;;;;;;;10.82;6.97;;;13.80;99.90;;;;;;4974484;28;20452;-86
2023/08/05 02:38:35;;;;;;;13.15;7.57;;;13.80;99.90;;;;;;4982953;28;20039;-86
2023/08/05 02:41:05;;;;;;;10.05;7.15;;;13.80;99.90;;;;;;4984045;28;20097;-85
2023/08/05 02:43:31;;;;;;;11.60;7.90;;;13.80;99.90;;;;;;4969261;28;20047;-86
2023/08/05 02:45:57;;;;;;;10.30;7.65;;;13.80;99.90;;;;;;4982292;28;20039;-85
2023/08/05 02:48:23;;;;;;;10.57;7.93;;;13.80;99.90;;;;;;4977177;28;20061;-86
2023/08/05 02:50:50;;;;;;;9.50;8.00;;;13.80;99.90;;;;;;4979813;28;20074;-87
2023/08/05 02:53:16;;;;;;;11.15;8.10;;;13.80;99.90;;;;;;4960765;28;20313;-86
2023/08/05 02:55:42;;;;;;;10.55;7.60;;;13.80;99.90;;;;;;4967247;28;20125;-86
2023/08/05 02:58:08;;;;;;;14.55;8.00;;;13.90;99.90;;;;;;4975323;28;20049;-87
2023/08/05 03:00:34;;;;;;;9.75;7.65;;;13.90;99.90;;;;;;4982726;28;20054;-86
2023/08/05 03:03:00;;;;;;;11.07;7.82;;;13.90;99.90;;;;;;4979871;28;20050;-86
2023/08/05 03:05:25;;;;;;;8.55;7.60;;;13.90;99.90;;;;;;4984941;28;20042;-87
2023/08/05 03:07:51;;;;;;;9.63;7.45;;;13.90;99.90;;;;;;4962380;28;20360;-86
2023/08/05 03:10:17;;;;;;;11.98;8.13;;;13.90;99.90;;;;;;4959985;28;20076;-86
2023/08/05 03:12:43;;;;;;;8.82;7.75;;;13.90;99.90;;;;;;4978995;28;20046;-86
2023/08/05 03:15:09;;;;;;;11.98;8.25;;;13.90;99.90;;;;;;4979807;28;20052;-86
2023/08/05 03:17:35;;;;;;;8.73;7.60;;;13.90;99.90;;;;;;4970387;28;20046;-87
2023/08/05 03:20:05;;;;;;;10.32;7.88;;;13.90;99.90;;;;;;4982360;28;20050;-86
2023/08/05 03:22:32;;;;;;;14.80;8.02;;;13.90;99.90;;;;;;4986764;28;20517;-87
2023/08/05 03:24:59;;;;;;;9.65;7.50;;;13.90;99.90;;;;;;4984483;28;20050;-86
2023/08/05 03:27:25;;;;;;;8.63;7.63;;;13.80;99.90;;;;;;4976546;28;20344;-86
2023/08/05 03:29:51;;;;;;;8.85;7.18;;;13.80;99.90;;;;;;4977538;28;20050;-86
2023/08/05 03:32:16;;;;;;;11.57;7.55;;;13.80;99.90;;;;;;4977723;28;20042;-86
2023/08/05 03:34:42;;;;;;;8.23;6.82;;;13.70;99.90;;;;;;4975846;28;20497;-86
2023/08/05 03:37:08;;;;;;;8.30;6.90;;;13.70;99.90;;;;;;4982381;28;20137;-87
2023/08/05 03:39:33;;;;;;;10.23;7.18;;;13.70;99.90;;;;;;4969361;28;20046;-86
2023/08/05 03:41:59;;;;;;;8.23;6.97;;;13.70;99.90;;;;;;4969106;28;20537;-86
2023/08/05 03:44:25;;;;;;;9.43;6.68;;;13.60;99.90;;;;;;4980827;28;20086;-86
2023/08/05 03:46:51;;;;;;;8.75;6.80;;;13.60;99.90;;;;;;4981632;28;20034;-86
2023/08/05 03:49:17;;;;;;;12.98;7.80;;;13.60;99.90;;;;;;4968947;28;20054;-87
2023/08/05 03:51:42;;;;;;;9.18;7.07;;;13.60;99.90;;;;;;4980181;28;20080;-86
2023/08/05 03:54:08;;;;;;;8.40;7.30;;;13.60;99.90;;;;;;4975391;28;20049;-87
2023/08/05 03:56:34;;;;;;;10.35;7.32;;;13.60;99.90;;;;;;4964878;28;20050;-87
2023/08/05 03:58:59;;;;;;;8.77;7.15;;;13.60;99.90;;;;;;4990791;28;20062;-87
2023/08/05 04:01:26;;;;;;;9.13;7.57;;;13.60;99.90;;;;;;4988439;28;20042;-86
2023/08/05 04:03:52;;;;;;;9.23;8.00;;;13.60;99.90;;;;;;4970683;28;20050;-85
2023/08/05 04:06:20;;;;;;;10.10;8.38;;;13.60;99.90;;;;;;4980400;28;20103;-85
2023/08/05 04:08:48;;;;;;;8.55;7.57;;;13.70;99.90;;;;;;4983866;28;20128;-86
2023/08/05 04:11:14;;;;;;;9.57;8.57;;;13.70;99.90;;;;;;4980243;28;20105;-86
2023/08/05 04:13:40;;;;;;;12.00;9.32;;;13.70;99.90;;;;;;4968538;28;20042;-87
2023/08/05 04:16:08;;;;;;;10.98;8.73;;;13.70;99.90;;;;;;4988272;28;20412;-86
2023/08/05 04:18:36;;;;;;;9.80;8.25;;;13.80;99.90;;;;;;4987679;28;20046;-84
2023/08/05 04:21:03;;;;;;;;;;;13.80;99.90;;;;;;4985993;28;20094;-81
2023/08/05 04:23:31;;;;;;;11.98;9.52;;;13.80;99.90;;;;;;4980634;28;19941;-90
2023/08/05 04:25:59;;;;;;;10.52;8.88;;;13.80;99.90;;;;;;4985697;28;20090;-87
2023/08/05 04:28:25;;;;;;;11.07;9.20;;;13.80;99.90;;;;;;4969072;28;20394;-89
2023/08/05 04:30:52;;;;;;;10.35;8.45;;;13.80;99.90;;;;;;4987104;28;20049;-85
2023/08/05 04:33:18;;;;;;;11.02;8.77;;;13.80;99.90;;;;;;4975702;28;20488;-86
2023/08/05 04:35:50;;;;;;;10.32;8.73;;;13.80;99.90;;;;;;4963949;28;20074;-85
2023/08/05 04:38:16;;;;;;;11.35;9.43;;;13.90;99.90;;;;;;4962219;28;20055;-85
2023/08/05 04:40:42;;;;;;;10.52;9.43;;;13.90;99.90;;;;;;4963770;28;20034;-89
2023/08/05 04:43:08;;;;;;;11.45;10.25;;;13.80;99.90;;;;;;4982869;28;20069;-90
2023/08/05 04:45:36;;;;;;;11.73;10.52;;;13.80;99.90;;;;;;4977518;28;20487;-89
2023/08/05 04:48:04;;;;;;;11.18;9.93;;;13.80;99.90;;;;;;4981469;28;20129;-86
2023/08/05 04:50:30;;;;;;;13.40;10.73;;;13.80;99.90;;;;;;4976067;28;20148;-87
2023/08/05 04:52:55;;;;;;;14.18;10.65;;;13.90;99.90;;;;;;4975629;28;20111;-88
2023/08/05 04:55:21;;;;;;;12.63;10.48;;;13.90;99.90;;;;;;4971722;28;20136;-90
2023/08/05 04:57:55;;;;;;;15.02;11.02;;;14.00;99.90;;;;;;4965926;28;20494;-87
2023/08/05 05:00:20;;;;;;;11.48;10.27;;;14.10;99.90;;;;;;4956672;28;20059;-88
2023/08/05 05:02:48;;;;;;;12.10;9.80;;;14.10;99.90;;;;;;4986793;28;20199;-87
2023/08/05 05:05:13;;;;;;;11.88;10.60;;;14.20;99.90;;;;;;4980332;28;20057;-86
2023/08/05 05:07:39;;;;;;;10.20;9.23;;;14.30;99.90;;;;;;4988528;28;20050;-88
2023/08/05 05:10:06;;;;;;;11.55;10.32;;;14.30;99.90;;;;;;4979837;28;20043;-88
2023/08/05 05:12:31;;;;;;;12.23;10.00;;;14.40;99.90;;;;;;4992407;28;20057;-85
2023/08/05 05:14:57;;;;;;;11.75;10.55;;;14.50;99.90;;;;;;4972456;28;20302;-85
2023/08/05 05:17:23;;;;;;;12.88;10.60;;;14.50;99.90;;;;;;4973077;28;20490;-87
2023/08/05 05:19:49;;;;;;;13.35;10.93;;;14.60;99.90;;;;;;4977959;28;20043;-84
2023/08/05 05:22:18;;;;;;;12.15;10.77;;;14.60;99.90;;;;;;4987677;28;20062;-85
2023/08/05 05:24:45;;;;;;;13.30;10.23;;;14.70;99.90;;;;;;4966680;28;20043;-83
2023/08/05 05:27:13;;;;;;;10.77;9.68;;;14.80;99.90;;;;;;4976711;28;20463;-84
2023/08/05 05:29:40;;;;;;;12.07;10.27;;;14.80;99.90;;;;;;4973727;28;20042;-88
2023/08/05 05:32:06;;;;;;;11.27;8.65;;;14.90;99.90;;;;;;4980523;28;20041;-86
2023/08/05 05:34:31;;;;;;;13.57;9.25;;;15.00;99.90;;;;;;4982261;28;20050;-78
2023/08/05 05:36:57;;;;;;;11.23;8.70;;;15.10;99.90;;;;;;4978749;28;20367;-77
2023/08/05 05:39:23;;;;;;;11.52;8.27;;;15.20;99.90;;;;;;4981427;28;20042;-84
2023/08/05 05:41:48;;;;;;;10.88;7.57;;;15.30;99.90;;;;;;4982935;28;20584;-85
2023/08/05 05:44:14;;;;;;;11.32;7.95;;;15.50;99.90;;;;;;4975490;28;20110;-84
2023/08/05 05:46:40;;;;;;;11.25;6.70;;;15.60;99.90;;;;;;4978374;28;20047;-84
2023/08/05 05:49:06;;;;;;;8.18;5.75;;;15.70;99.90;;;;;;4982107;28;20683;-84
2023/08/05 05:51:34;;;;;;;10.30;6.63;;;15.70;99.90;;;;;;4970034;28;20493;-84
2023/08/05 05:54:00;;;;;;;12.13;6.28;;;15.90;99.90;;;;;;4989309;28;20352;-84
2023/08/05 05:56:25;;;;;;;10.63;6.18;;;15.90;99.90;;;;;;4989359;28;20073;-84
2023/08/05 05:58:51;;;;;;;12.05;5.57;;;15.90;99.90;;;;;;4970084;28;20105;-84
2023/08/05 06:01:17;;;;;;;8.45;5.40;;;16.00;99.90;;;;;;4971700;28;20051;-84
2023/08/05 06:03:42;;;;;;;7.93;5.85;;;16.00;99.90;;;;;;4985675;28;20046;-86
2023/08/05 06:06:08;;;;;;;7.80;5.57;;;16.00;99.90;;;;;;4981947;28;20053;-86
2023/08/05 06:08:34;;;;;;;8.65;5.20;;;16.00;99.90;;;;;;4973427;28;20081;-86
2023/08/05 06:11:03;;;;;;;10.75;5.65;;;16.00;99.90;;;;;;4983697;28;20039;-86
2023/08/05 06:13:30;;;;;;;7.65;4.88;;;16.00;99.90;;;;;;4976631;28;20050;-86
2023/08/05 06:15:55;;;;;;;8.80;5.25;;;16.00;99.90;;;;;;4979098;28;20043;-87
2023/08/05 06:18:21;;;;;;;7.47;5.00;;;16.00;99.90;;;;;;4971305;28;20058;-86
2023/08/05 06:20:48;;;;;;;8.73;5.05;;;16.10;99.90;;;;;;4985374;28;20126;-86
2023/08/05 06:23:14;;;;;;;8.00;4.65;;;16.20;99.90;;;;;;4984754;28;20077;-86
2023/08/05 06:25:40;;;;;;;7.25;4.45;;;16.30;99.90;;;;;;4973629;28;20103;-86
2023/08/05 06:28:06;;;;;;;9.07;4.40;;;16.40;99.90;;;;;;4979330;28;20043;-86
2023/08/05 06:30:32;;;;;;;9.38;4.15;;;16.50;99.90;;;;;;4981833;28;20108;-86
2023/08/05 06:32:57;;;;;;;8.00;4.32;;;16.60;99.90;;;;;;4962218;28;20047;-86
2023/08/05 06:35:23;;;;;;;8.98;3.80;;;16.70;99.90;;;;;;4984379;28;20038;-86
2023/08/05 06:37:49;;;;;;;8.05;4.10;;;16.80;99.90;;;;;;4982958;28;20041;-86
2023/08/05 06:40:15;;;;;;;6.80;3.88;;;16.80;99.90;;;;;;4979735;28;20042;-84
2023/08/05 06:42:41;;;;;;;5.70;4.03;;;16.90;99.90;;;;;;4980090;28;20050;-81
2023/08/05 06:45:08;;;;;;;7.65;3.80;;;16.90;99.90;;;;;;4968530;28;21676;-86
2023/08/05 06:47:35;;;;;;;;;;;16.90;99.90;;;;;;4989991;28;20050;-86
2023/08/05 06:50:03;;;;;;;11.52;3.88;;;16.90;99.90;;;;;;4963490;28;19922;-84
2023/08/05 06:52:28;;;;;;;8.25;3.28;;;16.90;99.90;;;;;;4989057;28;20498;-80
2023/08/05 06:54:55;;;;;;;7.93;4.03;;;17.10;99.90;;;;;;4954857;28;20098;-83
2023/08/05 06:57:21;;;;;;;6.00;3.72;;;17.20;99.90;;;;;;4979438;28;20053;-84
2023/08/05 06:59:47;;;;;;;7.55;3.85;;;17.30;99.90;;;;;;4975781;28;20050;-82
2023/08/05 07:02:13;;;;;;;6.55;3.55;;;17.50;99.90;;;;;;4963167;28;20058;-83
2023/08/05 07:04:38;;;;;;;6.72;3.35;;;17.60;99.90;;;;;;4976024;28;20418;-84
2023/08/05 07:07:04;;;;;;;8.27;3.67;;;17.70;99.90;;;;;;4986312;28;20259;-83
2023/08/05 07:09:32;;;;;;;7.72;3.25;;;17.90;99.90;;;;;;4963280;28;20536;-83
2023/08/05 07:11:57;;;;;;;7.05;3.30;;;17.90;99.90;;;;;;4981358;28;20490;-85
2023/08/05 07:14:23;;;;;;;8.40;3.72;;;18.00;99.90;;;;;;4965336;28;20062;-80
2023/08/05 07:16:49;;;;;;;10.02;3.70;;;18.00;99.90;;;;;;4976589;28;20045;-82
2023/08/05 07:19:15;;;;;;;10.05;4.00;;;18.00;99.90;;;;;;4979921;28;20042;-81
2023/08/05 07:21:40;;;;;;;6.90;3.80;;;18.00;99.90;;;;;;4977198;28;20043;-80
2023/08/05 07:24:06;;;;;;;9.30;4.03;;;18.00;99.90;;;;;;4970479;28;20417;-82
2023/08/05 07:26:32;;;;;;;7.85;3.70;;;18.00;99.90;;;;;;4980646;28;20047;-81
2023/08/05 07:28:57;;;;;;;6.85;3.60;;;18.00;99.90;;;;;;4978095;28;20429;-81
2023/08/05 07:31:23;;;;;;;10.27;3.95;;;18.00;99.90;;;;;;4978340;28;20505;-72
2023/08/05 07:33:49;;;;;;;9.68;4.55;;;18.00;99.90;;;;;;4969238;28;20120;-80
2023/08/05 07:36:16;;;;;;;7.82;3.00;;;18.00;99.90;;;;;;4980809;28;20549;-80
2023/08/05 07:38:43;;;;;;;10.13;3.40;;;18.00;99.90;;;;;;4986402;28;20042;-83
2023/08/05 07:41:09;;;;;;;7.30;3.47;;;18.00;99.90;;;;;;4975122;28;20715;-77
2023/08/05 07:43:36;;;;;;;6.23;3.17;;;18.10;99.90;;;;;;4973667;28;20042;-77
2023/08/05 07:46:02;;;;;;;7.00;3.50;;;18.20;99.90;;;;;;4980613;28;20047;-78
2023/08/05 07:48:35;;;;;;;8.50;3.25;;;18.20;99.90;;;;;;4972096;28;20034;-81
2023/08/05 07:51:02;;;;;;;8.55;3.40;;;18.30;99.90;;;;;;4980914;28;20704;-75
2023/08/05 07:53:30;;;;;;;7.38;3.08;;;18.40;99.90;;;;;;4966050;28;20117;-80
2023/08/05 07:55:56;;;;;;;7.03;2.75;;;18.40;99.90;;;;;;4963568;28;20101;-78
2023/08/05 07:58:22;;;;;;;7.93;3.22;;;18.40;99.90;;;;;;4974832;28;20477;-78
2023/08/05 08:00:48;;;;;;;6.80;2.75;;;18.50;99.90;;;;;;4977520;28;20042;-76
2023/08/05 08:03:13;;;;;;;4.70;2.45;;;18.50;99.90;;;;;;4981076;28;20057;-76
2023/08/05 08:05:39;;;;;;;5.50;2.97;;;18.60;99.90;;;;;;4970348;28;20047;-76
2023/08/05 08:08:05;;;;;;;7.53;2.72;;;18.70;99.90;;;;;;4969950;28;20049;-76
2023/08/05 08:10:31;;;;;;;5.88;2.90;;;18.80;99.90;;;;;;4979194;28;20508;-75
2023/08/05 08:12:56;;;;;;;8.13;2.92;;;19.00;99.90;;;;;;4979601;28;20069;-75
2023/08/05 08:15:22;;;;;;;5.82;3.00;;;19.20;99.90;;;;;;4977123;28;20031;-77
2023/08/05 08:17:48;;;;;;;4.30;3.00;;;19.40;99.90;;;;;;4973859;28;20450;-79
2023/08/05 08:20:13;;;;;;;6.00;3.00;;;19.60;99.90;;;;;;4981457;28;20038;-75
2023/08/05 08:22:39;;;;;;;6.07;2.70;;;19.70;99.90;;;;;;4968562;28;20137;-75
2023/08/05 08:25:05;;;;;;;4.82;2.40;;;19.90;99.90;;;;;;4982981;28;20121;-75
2023/08/05 08:27:30;;;;;;;4.40;2.40;;;19.80;99.90;;;;;;4979696;28;20501;-75
2023/08/05 08:29:56;;;;;;;7.75;2.72;;;19.90;99.90;;;;;;4969321;28;20047;-78
2023/08/05 08:32:22;;;;;;;6.28;3.00;;;19.80;99.90;;;;;;4966935;28;20604;-77
2023/08/05 08:34:47;;;;;;;5.57;2.15;;;19.80;99.90;;;;;;4979565;28;20054;-78
2023/08/05 08:37:13;;;;;;;5.13;2.67;;;19.80;99.90;;;;;;4980763;28;20038;-78
2023/08/05 08:39:39;;;;;;;6.75;2.75;;;19.80;99.90;;;;;;4971203;28;20061;-78
2023/08/05 08:42:06;;;;;;;4.68;2.55;;;19.90;99.90;;;;;;4980340;28;20078;-78
2023/08/05 08:44:33;;;;;;;6.28;2.60;;;20.00;99.90;;;;;;4972225;28;20050;-78
2023/08/05 08:46:58;;;;;;;7.32;2.88;;;20.10;99.90;;;;;;4983992;28;20046;-75
2023/08/05 08:49:27;;;;;;;7.38;3.00;;;20.10;99.90;;;;;;4985889;28;20101;-76
2023/08/05 08:51:53;;;;;;;4.78;2.60;;;20.10;99.90;;;;;;4984771;28;20100;-76
2023/08/05 08:54:21;;;;;;;3.88;2.50;;;20.20;99.90;;;;;;4979073;28;20494;-78
2023/08/05 08:56:46;;;;;;;5.45;2.70;;;20.20;99.90;;;;;;4985929;28;20094;-76
2023/08/05 08:59:12;;;;;;;3.95;2.30;;;20.30;99.90;;;;;;4971313;28;20046;-77
2023/08/05 09:01:42;;;;;;;4.90;2.60;;;20.30;99.90;;;;;;4968157;28;20081;-75
2023/08/05 09:04:10;;;;;;;3.75;2.30;;;20.30;99.90;;;;;;4961576;28;20055;-75
2023/08/05 09:06:39;;;;;;;3.08;2.10;;;20.30;99.90;;;;;;4957622;28;20055;-76
2023/08/05 09:09:05;;;;;;;4.72;2.67;;;20.30;99.90;;;;;;4970659;28;20050;-75
2023/08/05 09:11:30;;;;;;;5.38;2.70;;;20.30;99.90;;;;;;4985799;28;20093;-74
2023/08/05 09:13:57;;;;;;;3.67;2.40;;;20.30;99.90;;;;;;4969572;28;20078;-75
2023/08/05 09:16:24;;;;;;;4.47;2.40;;;20.30;99.90;;;;;;4978928;28;20100;-74
2023/08/05 09:18:54;;;;;;;5.32;2.53;;;20.30;99.90;;;;;;4985546;28;20104;-74
2023/08/05 09:21:24;;;;;;;4.32;2.20;;;20.50;99.90;;;;;;4988682;28;20445;-79
2023/08/05 09:23:50;;;;;;;3.83;2.03;;;20.60;99.90;;;;;;4977241;28;20100;-78
2023/08/05 09:26:32;;;;;;;4.10;1.80;;;20.80;99.90;;;;;;4967431;28;20153;-75
2023/08/05 09:28:58;;;;;;;4.18;2.15;;;20.90;99.90;;;;;;4980841;28;20093;-76
2023/08/05 09:31:25;;;;;;;5.55;2.30;;;21.00;99.90;;;;;;4982364;28;20050;-80
2023/08/05 09:33:51;;;;;;;4.03;2.17;;;21.10;99.90;;;;;;4980105;28;20525;-78
2023/08/05 09:36:20;;;;;;;3.00;1.90;;;21.00;99.90;;;;;;4986221;28;20125;-78
2023/08/05 09:38:46;;;;;;;5.28;2.00;;;21.00;99.90;;;;;;4963887;28;20053;-82
2023/08/05 09:41:12;;;;;;;4.85;2.25;;;21.00;99.90;;;;;;4969045;28;20042;-77
2023/08/05 09:43:43;;;;;;;4.35;2.00;;;21.10;99.90;;;;;;4978575;28;20488;-80
2023/08/05 09:46:12;;;;;;;4.63;2.22;;;21.10;99.90;;;;;;4981208;28;20047;-78
2023/08/05 09:48:43;;;;;;;2.83;1.98;;;21.10;99.90;;;;;;4969800;28;20050;-82
2023/08/05 09:51:14;;;;;;;5.07;2.08;;;21.10;99.90;;;;;;4961301;28;20054;-79
2023/08/05 09:53:41;;;;;;;3.33;2.15;;;21.10;99.90;;;;;;4977281;28;20671;-78
2023/08/05 09:56:09;;;;;;;3.55;2.30;;;21.10;99.90;;;;;;4978958;28;20055;-75
2023/08/05 09:58:37;;;;;;;4.80;2.28;;;21.10;99.90;;;;;;4982921;28;20681;-79
2023/08/05 10:01:08;;;;;;;4.93;2.40;;;21.10;99.90;;;;;;4984396;28;20085;-81
2023/08/05 10:03:40;;;;;;;3.90;2.28;;;21.10;99.90;;;;;;4984399;28;20104;-77
2023/08/05 10:06:07;;;;;;;4.82;2.30;;;21.10;99.90;;;;;;4982288;28;20045;-79
2023/08/05 10:08:36;;;;;;;5.85;2.38;;;21.20;99.90;;;;;;4975626;28;20047;-78
2023/08/05 10:11:03;;;;;;;5.97;2.83;;;21.30;99.90;;;;;;4974064;28;20082;-81
2023/08/05 10:13:32;;;;;;;7.07;3.08;;;21.30;99.90;;;;;;4986618;28;20150;-76
2023/08/05 10:15:58;;;;;;;6.22;2.70;;;21.40;99.90;;;;;;4970176;28;20050;-76
2023/08/05 10:18:26;;;;;;;4.45;2.15;;;21.40;99.90;;;;;;4979614;28;20045;-76
2023/08/05 10:20:52;;;;;;;4.05;2.50;;;21.30;99.90;;;;;;4969510;28;20057;-76
2023/08/05 10:23:18;;;;;;;6.15;2.60;;;21.20;99.90;;;;;;4984038;28;20053;-78
2023/08/05 10:25:49;;;;;;;5.72;2.83;;;21.20;99.90;;;;;;4982358;28;20125;-85
2023/08/05 10:28:23;;;;;;;4.88;2.97;;;21.20;99.90;;;;;;4962674;28;20046;-82
2023/08/05 10:30:50;;;;;;;6.10;3.00;;;21.30;99.90;;;;;;4976866;28;20048;-81
2023/08/05 10:33:16;;;;;;;3.88;2.60;;;21.40;99.90;;;;;;4978838;28;20050;-84
2023/08/05 10:35:48;;;;;;;4.50;2.15;;;21.40;99.90;;;;;;4981401;28;20093;-84
2023/08/05 10:38:23;;;;;;;4.25;2.25;;;21.50;99.90;;;;;;4970929;28;20051;-81
2023/08/05 10:41:04;;;;;;;2.95;1.73;;;21.40;99.90;;;;;;4982462;28;20042;-79
2023/08/05 10:43:33;;;;;;;4.20;2.15;;;21.40;99.90;;;;;;4980108;28;20039;-82
2023/08/05 10:46:11;;;;;;;3.65;1.80;;;21.50;99.90;;;;;;4954438;28;20061;-81
2023/08/05 10:48:42;;;;;;;2.40;1.83;;;21.60;99.90;;;;;;4955569;28;20129;-81
2023/08/05 10:51:10;;;;;;;2.97;1.80;;;21.70;99.90;;;;;;4967965;28;20070;-76
2023/08/05 10:53:36;;;;;;;4.07;2.00;;;21.80;99.90;;;;;;4972048;28;20057;-74
2023/08/05 10:56:02;;;;;;;4.50;2.25;;;21.80;99.90;;;;;;4978059;28;20039;-74
2023/08/05 10:58:28;;;;;;;3.13;2.13;;;21.80;99.90;;;;;;4980712;28;20039;-74
2023/08/05 11:00:58;;;;;;;3.78;2.70;;;21.80;99.90;;;;;;4955815;28;20055;-71
2023/08/05 11:03:38;;;;;;;5.85;2.85;;;21.80;99.90;;;;;;4971484;28;20089;-73
2023/08/05 11:06:04;;;;;;;6.55;3.63;;;21.90;99.90;;;;;;4966559;28;20129;-73
2023/08/05 11:08:32;;;;;;;4.22;3.33;;;22.00;99.90;;;;;;4975055;28;20104;-74
2023/08/05 11:11:07;;;;;;;;;;;22.00;99.90;;;;;;4963186;28;20050;-71
2023/08/05 11:13:38;;;;;;;6.03;4.05;;;22.00;99.90;;;;;;4971537;28;19972;-74
2023/08/05 11:16:09;;;;;;;6.85;4.93;;;22.10;99.90;;;;;;4980115;28;20034;-73
2023/08/05 11:18:34;;;;;;;6.63;4.43;;;22.10;99.90;;;;;;4982284;28;20482;-73
2023/08/05 11:21:02;;;;;;;9.02;3.80;;;22.30;99.90;;;;;;4986414;28;20077;-77
2023/08/05 11:23:28;;;;;;;7.05;5.28;;;22.40;99.90;;;;;;4979520;28;20039;-72
2023/08/05 11:25:57;;;;;;;6.87;4.23;;;22.60;99.90;;;;;;4981151;28;20493;-73
2023/08/05 11:28:24;;;;;;;6.00;4.97;;;22.80;99.90;;;;;;4988206;28;20078;-71
2023/08/05 11:30:49;;;;;;;8.15;6.20;;;22.90;99.90;;;;;;4963197;28;20038;-71
2023/08/05 11:33:15;;;;;;;6.25;4.57;;;22.90;99.90;;;;;;4975633;28;20166;-71
2023/08/05 11:35:47;;;;;;;5.55;4.32;;;22.90;99.90;;;;;;4970989;28;20047;-74
2023/08/05 11:38:16;;;;;;;7.35;4.63;;;22.90;99.90;;;;;;4966982;28;20046;-74
2023/08/05 11:40:51;;;;;;;7.68;4.85;;;23.00;99.90;;;;;;4979143;28;20050;-73
2023/08/05 11:43:21;;;;;;;7.78;5.28;;;22.90;99.90;;;;;;4968073;28;20085;-73
2023/08/05 11:45:51;;;;;;;7.18;5.60;;;22.90;99.90;;;;;;4976493;28;20509;-73
2023/08/05 11:48:25;;;;;;;7.78;5.60;;;22.90;99.90;;;;;;4972859;28;20513;-73
2023/08/05 11:50:57;;;;;;;6.38;5.07;;;22.90;99.90;;;;;;4961027;28;20568;-73
2023/08/05 11:53:22;;;;;;;7.57;5.18;;;23.00;99.90;;;;;;4967145;28;20039;-73
2023/08/05 11:55:48;;;;;;;7.68;4.85;;;23.10;99.90;;;;;;4987770;28;20113;-76
2023/08/05 11:58:14;;;;;;;7.43;5.68;;;23.10;99.90;;;;;;4974373;28;20081;-75
2023/08/05 12:00:49;;;;;;;7.50;5.72;;;23.10;99.90;;;;;;4988346;28;20090;-76
2023/08/05 12:03:15;;;;;;;7.10;5.85;;;23.00;99.90;;;;;;4978449;28;20057;-79
2023/08/05 12:05:46;;;;;;;8.60;5.32;;;23.00;99.90;;;;;;4984028;28;20054;-79
2023/08/05 12:08:12;;;;;;;9.15;5.95;;;23.00;99.90;;;;;;4964200;28;20413;-79
2023/08/05 12:10:56;;;;;;;7.93;5.57;;;22.90;99.90;;;;;;4976556;28;20050;-80
2023/08/05 12:13:21;;;;;;;7.53;5.20;;;22.90;99.90;;;;;;4980364;28;20127;-80
2023/08/05 12:15:47;;;;;;;7.30;4.68;;;22.80;99.90;;;;;;4978392;28;20047;-81
2023/08/05 12:18:17;;;;;;;7.03;4.68;;;22.80;99.90;;;;;;4976395;28;20048;-81
2023/08/05 12:20:46;;;;;;;8.10;5.57;;;22.80;99.90;;;;;;4980476;28;20054;-79
2023/08/05 12:23:12;;;;;;;6.15;4.43;;;22.70;99.90;;;;;;4990184;28;20042;-80
2023/08/05 12:25:38;;;;;;;5.18;4.13;;;22.70;99.90;;;;;;4987422;28;20456;-79
2023/08/05 12:28:04;;;;;;;5.22;3.85;;;22.60;99.90;;;;;;4983899;28;20061;-77
2023/08/05 12:30:29;;;;;;;5.38;4.10;;;22.50;99.90;;;;;;4990126;28;20053;-77
2023/08/05 12:32:57;;;;;;;6.10;4.28;;;22.50;99.90;;;;;;4946710;28;20489;-77
2023/08/05 12:35:23;;;;;;;5.80;4.45;;;22.50;99.90;;;;;;4987907;28;20144;-75
2023/08/05 12:37:49;;;;;;;8.77;4.68;;;22.50;99.90;;;;;;4968050;28;20401;-76
2023/08/05 12:40:14;;;;;;;6.20;4.97;;;22.50;99.90;;;;;;4984910;28;20050;-76
2023/08/05 12:42:41;;;;;;;7.15;5.22;;;22.50;99.90;;;;;;4992924;28;20052;-75